createdAt,value
2022-08-05T00:01:36.260Z,100439.50
2022-08-05T00:04:17.471Z,100443.88
2022-08-05T00:06:45.518Z,100413.72
2022-08-05T00:09:16.042Z,100433.75
2022-08-05T00:11:56.067Z,100453.34
2022-08-05T00:14:29.301Z,100439.47
2022-08-05T00:17:01.913Z,100433.88
2022-08-05T00:19:32.924Z,100440.00
2022-08-05T00:22:02.848Z,100452.38
2022-08-05T00:24:31.575Z,100451.72
2022-08-05T00:26:59.523Z,100399.28
2022-08-05T00:29:27.592Z,100436.88
2022-08-05T00:32:12.906Z,100428.38
2022-08-05T00:35:05.511Z,100439.84
2022-08-05T00:37:50.721Z,100421.91
2022-08-05T00:40:27.328Z,100449.97
2022-08-05T00:43:00.571Z,100451.06
2022-08-05T00:45:42.742Z,100447.72
2022-08-05T00:48:13.588Z,100441.13
2022-08-05T00:50:44.122Z,100441.72
2022-08-05T00:54:00.707Z,100440.66
2022-08-05T00:56:03.119Z,100454.31
2022-08-05T00:58:32.389Z,100453.53
2022-08-05T01:00:59.887Z,100449.25
2022-08-05T01:03:30.912Z,100445.72
2022-08-05T01:06:00.564Z,100446.59
2022-08-05T01:08:42.232Z,100445.63
2022-08-05T01:11:37.227Z,100440.31
2022-08-05T01:14:36.199Z,100429.59
2022-08-05T01:17:47.129Z,100426.88
2022-08-05T01:20:40.869Z,100419.69
2022-08-05T01:23:34.820Z,100433.47
2022-08-05T01:26:26.389Z,100435.28
2022-08-05T01:29:03.547Z,100443.25
2022-08-05T01:31:55.394Z,100447.75
2022-08-05T01:34:28.178Z,100452.91
2022-08-05T01:37:09.685Z,100443.41
2022-08-05T01:39:59.152Z,100443.47
2022-08-05T01:42:28.024Z,100464.00
2022-08-05T01:45:02.096Z,100453.75
2022-08-05T01:47:39.337Z,100406.91
2022-08-05T01:50:18.941Z,100429.69
2022-08-05T01:53:02.073Z,100453.41
2022-08-05T01:55:36.051Z,100449.75
2022-08-05T01:58:10.036Z,100445.16
2022-08-05T02:00:55.678Z,100464.31
2022-08-05T02:03:36.240Z,100426.22
2022-08-05T02:06:24.234Z,100438.84
2022-08-05T02:08:58.467Z,100457.72
2022-08-05T02:11:33.957Z,100458.66
2022-08-05T02:14:12.444Z,100465.88
2022-08-05T02:16:52.954Z,100462.06
2022-08-05T02:19:35.943Z,100456.81
2022-08-05T02:22:25.554Z,100462.19
2022-08-05T02:25:00.067Z,100469.88
2022-08-05T02:27:59.657Z,100470.44
2022-08-05T02:30:18.463Z,100480.81
2022-08-05T02:32:49.590Z,100489.41
2022-08-05T02:35:27.776Z,100481.91
2022-08-05T02:37:59.094Z,100484.38
2022-08-05T02:40:30.191Z,100492.47
2022-08-05T02:42:59.293Z,100497.78
2022-08-05T02:45:28.555Z,100498.72
2022-08-05T02:48:17.551Z,100497.13
2022-08-05T02:50:48.430Z,100489.56
2022-08-05T02:53:19.609Z,100482.91
2022-08-05T02:56:00.129Z,100490.44
2022-08-05T02:58:30.739Z,100527.47
2022-08-05T03:01:01.871Z,100512.22
2022-08-05T03:03:33.675Z,100520.84
2022-08-05T03:06:54.184Z,100487.13
2022-08-05T03:08:53.030Z,100508.06
2022-08-05T03:11:55.509Z,100448.38
2022-08-05T03:14:13.990Z,100513.38
2022-08-05T03:16:41.908Z,100521.63
2022-08-05T03:19:17.190Z,100474.97
2022-08-05T03:21:57.495Z,100510.38
2022-08-05T03:24:30.089Z,100517.38
2022-08-05T03:27:00.137Z,100513.63
2022-08-05T03:29:45.240Z,100510.56
2022-08-05T03:32:18.202Z,100495.38
2022-08-05T03:34:50.723Z,100475.81
2022-08-05T03:37:23.738Z,100518.19
2022-08-05T03:40:01.078Z,100524.50
2022-08-05T03:42:31.963Z,100513.84
2022-08-05T03:44:59.457Z,100532.91
2022-08-05T03:47:30.511Z,100522.97
2022-08-05T03:50:03.642Z,100502.66
2022-08-05T03:54:59.295Z,100536.59
2022-08-05T03:56:05.556Z,100517.38
2022-08-05T03:58:29.097Z,100524.00
2022-08-05T04:01:00.193Z,100540.84
2022-08-05T04:03:29.478Z,100524.94
2022-08-05T04:05:59.161Z,100522.28
2022-08-05T04:08:34.982Z,100546.66
2022-08-05T04:11:08.695Z,100542.16
2022-08-05T04:13:49.837Z,100541.03
2022-08-05T04:16:25.476Z,100533.91
2022-08-05T04:19:00.226Z,100545.03
2022-08-05T04:22:08.671Z,100549.31
2022-08-05T04:24:19.587Z,100535.19
2022-08-05T04:26:51.185Z,100550.03
2022-08-05T04:29:18.488Z,100543.47
2022-08-05T04:31:48.462Z,100552.25
2022-08-05T04:34:32.399Z,100547.75
2022-08-05T04:37:03.098Z,100536.75
2022-08-05T04:39:32.200Z,100547.88
2022-08-05T04:42:01.873Z,100480.47
2022-08-05T04:44:33.724Z,100559.28
2022-08-05T04:47:09.561Z,100548.47
2022-08-05T04:50:03.051Z,100556.28
2022-08-05T04:52:33.329Z,100556.22
2022-08-05T04:55:13.968Z,100535.81
2022-08-05T04:57:47.520Z,100547.44
2022-08-05T05:00:15.972Z,100524.66
2022-08-05T05:02:45.416Z,100529.41
2022-08-05T05:05:16.482Z,100552.47
2022-08-05T05:08:01.190Z,100536.31
2022-08-05T05:10:30.762Z,100548.63
2022-08-05T05:13:04.295Z,100542.38
2022-08-05T05:15:57.177Z,100536.72
2022-08-05T05:18:31.384Z,100514.66
2022-08-05T05:21:03.611Z,100544.84
2022-08-05T05:23:39.138Z,100453.53
2022-08-05T05:26:28.541Z,100502.84
2022-08-05T05:29:10.014Z,100547.25
2022-08-05T05:31:42.385Z,100486.38
2022-08-05T05:34:20.002Z,100513.00
2022-08-05T05:36:51.660Z,100546.63
2022-08-05T05:39:20.959Z,100513.09
2022-08-05T05:41:54.061Z,100542.19
2022-08-05T05:44:35.794Z,100546.78
2022-08-05T05:47:04.238Z,100554.19
2022-08-05T05:49:37.548Z,100553.25
2022-08-05T05:52:08.761Z,100549.56
2022-08-05T05:54:50.970Z,100547.03
2022-08-05T05:57:20.954Z,100528.16
2022-08-05T05:59:48.954Z,100545.38
2022-08-05T06:02:32.927Z,100546.56
2022-08-05T06:05:16.402Z,100554.16
2022-08-05T06:08:01.211Z,100525.53
2022-08-05T06:10:34.497Z,100543.78
2022-08-05T06:13:05.934Z,100513.59
2022-08-05T06:16:30.495Z,100539.59
2022-08-05T06:18:31.216Z,100542.50
2022-08-05T06:21:01.451Z,100551.22
2022-08-05T06:23:43.751Z,100517.31
2022-08-05T06:26:23.975Z,100540.56
2022-08-05T06:28:52.510Z,100511.03
2022-08-05T06:31:22.495Z,100520.94
2022-08-05T06:34:07.406Z,100555.09
2022-08-05T06:36:57.552Z,100548.72
2022-08-05T06:39:27.155Z,100565.19
2022-08-05T06:42:04.611Z,100545.97
2022-08-05T06:44:32.674Z,100546.16
2022-08-05T06:47:02.389Z,100539.41
2022-08-05T06:50:01.113Z,100543.94
2022-08-05T06:52:37.797Z,100535.88
2022-08-05T06:55:07.822Z,100555.09
2022-08-05T06:57:57.836Z,100537.13
2022-08-05T07:00:25.662Z,100551.81
2022-08-05T07:02:54.821Z,100545.38
2022-08-05T07:05:31.932Z,100560.94
2022-08-05T07:08:10.646Z,100551.25
2022-08-05T07:10:39.394Z,100516.03
2022-08-05T07:13:56.888Z,100549.41
2022-08-05T07:17:58.471Z,100544.94
2022-08-05T07:20:23.029Z,100536.59
2022-08-05T07:22:30.185Z,100534.25
2022-08-05T07:25:54.237Z,100526.19
2022-08-05T07:27:58.852Z,100538.59
2022-08-05T07:30:33.675Z,100543.03
2022-08-05T07:33:05.342Z,100533.41
2022-08-05T07:36:04.333Z,100532.50
2022-08-05T07:38:33.532Z,100535.78
2022-08-05T07:42:08.865Z,100514.38
2022-08-05T07:44:01.665Z,100519.59
2022-08-05T07:46:33.689Z,100538.50
2022-08-05T07:49:06.006Z,100515.63
2022-08-05T07:51:48.776Z,100489.47
2022-08-05T07:54:31.619Z,100510.81
2022-08-05T07:57:13.850Z,100476.00
2022-08-05T07:59:52.386Z,100516.63
2022-08-05T08:02:31.382Z,100498.09
2022-08-05T08:05:17.441Z,100504.16
2022-08-05T08:08:00.053Z,100502.81
2022-08-05T08:10:28.397Z,100499.41
2022-08-05T08:12:58.829Z,100500.34
2022-08-05T08:15:37.452Z,100492.38
2022-08-05T08:18:20.901Z,100473.34
2022-08-05T08:21:02.897Z,100514.53
2022-08-05T08:24:02.682Z,100524.78
2022-08-05T08:26:30.008Z,100507.88
2022-08-05T08:29:22.029Z,100501.50
2022-08-05T08:31:51.200Z,100485.16
2022-08-05T08:34:30.706Z,100487.25
2022-08-05T08:37:04.806Z,100428.91
2022-08-05T08:39:32.877Z,100497.03
2022-08-05T08:42:15.179Z,100471.13
2022-08-05T08:45:22.307Z,100496.69
2022-08-05T08:48:06.276Z,100505.97
2022-08-05T08:51:03.182Z,100499.19
2022-08-05T08:53:28.859Z,100489.84
2022-08-05T08:56:05.335Z,100446.66
2022-08-05T08:58:43.997Z,100486.28
2022-08-05T09:01:21.072Z,100492.41
2022-08-05T09:03:54.585Z,100498.84
2022-08-05T09:06:31.764Z,100477.72
2022-08-05T09:09:01.363Z,100485.06
2022-08-05T09:11:53.485Z,100451.06
2022-08-05T09:14:56.693Z,100445.59
2022-08-05T09:17:40.500Z,100474.69
2022-08-05T09:20:06.273Z,100484.63
2022-08-05T09:23:18.471Z,100469.34
2022-08-05T09:26:00.281Z,100475.34
2022-08-05T09:28:34.699Z,100471.22
2022-08-05T09:31:22.832Z,100428.00
2022-08-05T09:34:02.269Z,100469.16
2022-08-05T09:36:56.245Z,100476.00
2022-08-05T09:39:39.577Z,100475.44
2022-08-05T09:42:28.299Z,100464.91
2022-08-05T09:45:17.445Z,100457.91
2022-08-05T09:47:56.205Z,100470.69
2022-08-05T09:50:44.064Z,100427.34
2022-08-05T09:53:22.869Z,100464.81
2022-08-05T09:56:04.756Z,100468.16
2022-08-05T09:58:38.588Z,100456.38
2022-08-05T10:01:15.133Z,100427.84
2022-08-05T10:04:28.651Z,100466.81
2022-08-05T10:06:58.818Z,100437.47
2022-08-05T10:09:28.438Z,100450.38
2022-08-05T10:12:18.525Z,100445.41
2022-08-05T10:15:20.273Z,100450.63
2022-08-05T10:18:04.799Z,100452.84
2022-08-05T10:20:35.938Z,100459.94
2022-08-05T10:23:03.309Z,100446.25
2022-08-05T10:25:30.610Z,100459.50
2022-08-05T10:28:13.272Z,100448.41
2022-08-05T10:32:47.511Z,100441.16
2022-08-05T10:33:36.199Z,100456.59
2022-08-05T10:36:04.609Z,100425.63
2022-08-05T10:38:37.568Z,100434.91
2022-08-05T10:41:23.451Z,100451.78
2022-08-05T10:44:01.607Z,100452.78
2022-08-05T10:46:54.420Z,100442.06
2022-08-05T10:49:27.031Z,100444.97
2022-08-05T10:52:02.731Z,100434.94
2022-08-05T10:55:05.461Z,100458.09
2022-08-05T10:57:35.089Z,100440.22
2022-08-05T11:00:20.721Z,100413.94
2022-08-05T11:03:25.226Z,100437.50
2022-08-05T11:06:15.837Z,100430.97
2022-08-05T11:09:18.640Z,100437.81
2022-08-05T11:11:55.328Z,100389.81
2022-08-05T11:18:00.451Z,100432.84
2022-08-05T11:20:37.372Z,100427.34
2022-08-05T11:24:05.093Z,100428.84
2022-08-05T11:26:29.133Z,100411.75
2022-08-05T11:29:13.866Z,100378.63
2022-08-05T11:31:54.300Z,100408.94
2022-08-05T11:34:51.079Z,100378.84
2022-08-05T11:38:36.626Z,100418.69
2022-08-05T11:41:12.896Z,100416.00
2022-08-05T11:44:05.606Z,100425.34
2022-08-05T11:47:09.656Z,100424.75
2022-08-05T11:49:34.027Z,100418.59
2022-08-05T11:52:11.562Z,100414.78
2022-08-05T11:54:43.556Z,100423.66
2022-08-05T11:57:25.516Z,100403.63
2022-08-05T11:59:56.242Z,100421.97
2022-08-05T12:02:32.836Z,100372.19
2022-08-05T12:05:07.360Z,100411.66
2022-08-05T12:08:08.483Z,100438.66
2022-08-05T12:10:43.053Z,100377.63
2022-08-05T12:13:27.799Z,100388.03
2022-08-05T12:16:14.532Z,100410.72
2022-08-05T12:18:49.554Z,100423.03
2022-08-05T12:21:30.207Z,100419.09
2022-08-05T12:24:04.870Z,100410.19
2022-08-05T12:26:37.086Z,100392.28
2022-08-05T12:29:09.414Z,100414.78
2022-08-05T12:31:42.371Z,100417.66
2022-08-05T12:34:21.477Z,100422.16
2022-08-05T12:36:53.826Z,100410.31
2022-08-05T12:39:28.087Z,100400.16
2022-08-05T12:42:03.638Z,100387.56
2022-08-05T12:44:34.049Z,100381.47
2022-08-05T12:47:02.761Z,100415.13
2022-08-05T12:50:04.622Z,100410.34
2022-08-05T12:52:41.780Z,100375.97
2022-08-05T12:55:25.654Z,100410.50
2022-08-05T12:58:49.459Z,100371.03
2022-08-05T13:02:01.453Z,100407.78
2022-08-05T13:03:41.725Z,100409.88
2022-08-05T13:06:20.340Z,100401.38
2022-08-05T13:08:51.630Z,100415.06
2022-08-05T13:11:59.830Z,100415.53
2022-08-05T13:14:25.030Z,100401.41
2022-08-05T13:17:40.180Z,100410.78
2022-08-05T13:20:11.425Z,100403.91
2022-08-05T13:22:48.144Z,100397.41
2022-08-05T13:25:19.046Z,100395.47
2022-08-05T13:27:54.542Z,100403.09
2022-08-05T13:30:35.185Z,100380.13
2022-08-05T13:33:06.936Z,100346.59
2022-08-05T13:35:47.330Z,100358.22
2022-08-05T13:38:31.009Z,100388.28
2022-08-05T13:41:03.972Z,100375.66
2022-08-05T13:43:45.266Z,100370.25
2022-08-05T13:46:37.896Z,100369.41
2022-08-05T13:49:15.824Z,100317.69
2022-08-05T13:51:46.503Z,100329.41
2022-08-05T13:54:24.951Z,100363.38
2022-08-05T13:56:53.711Z,100372.31
2022-08-05T13:59:27.525Z,100327.63
2022-08-05T14:02:00.466Z,100357.41
2022-08-05T14:04:51.909Z,100325.03
2022-08-05T14:07:55.637Z,100320.53
2022-08-05T14:10:28.521Z,100364.72
2022-08-05T14:13:00.463Z,100352.88
2022-08-05T14:16:05.261Z,100362.13
2022-08-05T14:18:23.294Z,100346.75
2022-08-05T14:20:54.725Z,100315.41
2022-08-05T14:23:26.170Z,100355.69
2022-08-05T14:25:58.921Z,100340.09
2022-08-05T14:28:30.605Z,100352.16
2022-08-05T14:31:01.761Z,100352.91
2022-08-05T14:33:59.232Z,100330.94
2022-08-05T14:36:24.022Z,100343.88
2022-08-05T14:38:53.921Z,100352.28
2022-08-05T14:41:21.171Z,100349.91
2022-08-05T14:43:54.977Z,100329.22
2022-08-05T14:46:31.399Z,100341.50
2022-08-05T14:49:06.315Z,100349.69
2022-08-05T14:51:42.893Z,100356.34
2022-08-05T14:54:29.958Z,100323.59
2022-08-05T14:57:05.110Z,100304.56
2022-08-05T14:59:39.931Z,100288.09
2022-08-05T15:02:15.006Z,100336.97
2022-08-05T15:04:47.779Z,100349.47
2022-08-05T15:08:06.378Z,100342.88
2022-08-05T15:10:09.856Z,100338.59
2022-08-05T15:13:00.416Z,100333.44
2022-08-05T15:15:54.993Z,100340.94
2022-08-05T15:18:17.651Z,100346.47
2022-08-05T15:20:47.219Z,100344.19
2022-08-05T15:23:16.869Z,100342.56
2022-08-05T15:25:52.729Z,100346.66
2022-08-05T15:28:27.311Z,100332.66
2022-08-05T15:30:57.828Z,100343.31
2022-08-05T15:34:04.678Z,100334.19
2022-08-05T15:36:17.862Z,100337.91
2022-08-05T15:40:41.565Z,100330.25
2022-08-05T15:41:57.506Z,100343.97
2022-08-05T15:44:31.092Z,100334.38
2022-08-05T15:47:04.222Z,100336.75
2022-08-05T15:49:53.466Z,100343.28
2022-08-05T15:52:29.439Z,100344.66
2022-08-05T15:55:16.250Z,100335.59
2022-08-05T15:57:49.066Z,100331.28
2022-08-05T16:00:26.380Z,100330.09
2022-08-05T16:03:02.578Z,100343.47
2022-08-05T16:05:31.603Z,100338.09
2022-08-05T16:07:58.685Z,100353.47
2022-08-05T16:10:29.454Z,100345.50
2022-08-05T16:12:59.582Z,100340.56
2022-08-05T16:15:32.747Z,100348.72
2022-08-05T16:18:04.384Z,100347.88
2022-08-05T16:20:37.287Z,100328.75
2022-08-05T16:23:05.950Z,100346.78
2022-08-05T16:25:36.912Z,100356.00
2022-08-05T16:28:06.389Z,100363.53
2022-08-05T16:30:37.035Z,100328.13
2022-08-05T16:33:05.625Z,100358.13
2022-08-05T16:35:42.326Z,100358.28
2022-08-05T16:38:23.951Z,100358.13
2022-08-05T16:40:59.866Z,100357.63
2022-08-05T16:43:33.126Z,100367.34
2022-08-05T16:46:04.034Z,100342.25
2022-08-05T16:48:39.113Z,100371.97
2022-08-05T16:51:10.158Z,100372.69
2022-08-05T16:54:04.997Z,100335.06
2022-08-05T16:56:33.635Z,100386.25
2022-08-05T16:59:08.458Z,100367.41
2022-08-05T17:01:53.862Z,100372.22
2022-08-05T17:04:28.259Z,100377.09
2022-08-05T17:07:01.228Z,100381.88
2022-08-05T17:09:38.922Z,100379.47
2022-08-05T17:12:22.521Z,100388.97
2022-08-05T17:15:10.185Z,100345.19
2022-08-05T17:17:44.087Z,100355.06
2022-08-05T17:20:14.571Z,100382.38
2022-08-05T17:22:44.881Z,100345.50
2022-08-05T17:25:33.644Z,100396.38
2022-08-05T17:28:02.358Z,100404.94
2022-08-05T17:30:29.790Z,100384.53
2022-08-05T17:32:58.891Z,100365.06
2022-08-05T17:35:32.619Z,100384.53
2022-08-05T17:38:17.680Z,100396.38
2022-08-05T17:40:47.569Z,100397.69
2022-08-05T17:43:18.592Z,100406.06
2022-08-05T17:46:08.142Z,100390.22
2022-08-05T17:48:38.043Z,100366.19
2022-08-05T17:51:09.053Z,100416.50
2022-08-05T17:53:39.257Z,100395.94
2022-08-05T17:56:08.162Z,100369.56
2022-08-05T17:58:37.719Z,100405.44
2022-08-05T18:01:09.711Z,100377.75
2022-08-05T18:03:59.621Z,100404.28
2022-08-05T18:06:29.314Z,100376.31
2022-08-05T18:08:58.375Z,100359.97
2022-08-05T18:11:32.900Z,100401.19
2022-08-05T18:14:03.491Z,100399.63
2022-08-05T18:16:32.824Z,100397.13
2022-08-05T18:18:59.921Z,100401.34
2022-08-05T18:22:07.365Z,100410.50
2022-08-05T18:24:16.184Z,100401.34
2022-08-05T18:26:44.018Z,100407.94
2022-08-05T18:29:10.963Z,100419.34
2022-08-05T18:31:38.336Z,100398.91
2022-08-05T18:34:12.190Z,100394.91
2022-08-05T18:36:41.119Z,100424.56
2022-08-05T18:39:09.728Z,100410.56
2022-08-05T18:41:57.291Z,100413.25
2022-08-05T18:44:34.907Z,100398.59
2022-08-05T18:47:04.259Z,100373.47
2022-08-05T18:49:58.273Z,100424.81
2022-08-05T18:52:33.734Z,100423.94
2022-08-05T18:55:10.702Z,100421.19
2022-08-05T18:57:50.348Z,100410.72
2022-08-05T19:00:27.220Z,100411.19
2022-08-05T19:03:03.408Z,100423.00
2022-08-05T19:06:13.612Z,100398.59
2022-08-05T19:08:21.814Z,100399.47
2022-08-05T19:10:49.544Z,100409.66
2022-08-05T19:13:19.813Z,100403.06
2022-08-05T19:15:59.165Z,100384.78
2022-08-05T19:18:28.833Z,100357.59
2022-08-05T19:20:56.286Z,100409.44
2022-08-05T19:24:07.387Z,100383.78
2022-08-05T19:26:12.091Z,100413.53
2022-08-05T19:28:43.849Z,100397.81
2022-08-05T19:31:13.269Z,100414.97
2022-08-05T19:33:48.710Z,100413.72
2022-08-05T19:36:26.251Z,100427.41
2022-08-05T19:39:01.006Z,100424.16
2022-08-05T19:41:58.386Z,100430.50
2022-08-05T19:44:18.960Z,100424.31
2022-08-05T19:46:46.762Z,100435.34
2022-08-05T19:49:16.818Z,100421.31
2022-08-05T19:52:05.949Z,100418.69
2022-08-05T19:54:37.001Z,100366.94
2022-08-05T19:57:06.895Z,100337.63
2022-08-05T19:59:56.386Z,100431.19
2022-08-05T20:02:31.366Z,100371.16
2022-08-05T20:05:00.187Z,100420.44
2022-08-05T20:07:39.014Z,100411.63
2022-08-05T20:10:17.272Z,100413.56
2022-08-05T20:12:49.809Z,100411.06
2022-08-05T20:15:47.822Z,100410.34
2022-08-05T20:18:10.635Z,100408.56
2022-08-05T20:20:57.895Z,100419.06
2022-08-05T20:23:40.715Z,100396.56
2022-08-05T20:26:25.508Z,100410.72
2022-08-05T20:28:56.824Z,100416.38
2022-08-05T20:31:43.227Z,100413.72
2022-08-05T20:34:15.304Z,100404.34
2022-08-05T20:36:44.263Z,100406.13
2022-08-05T20:39:16.178Z,100407.41
2022-08-05T20:41:45.178Z,100344.06
2022-08-05T20:44:15.389Z,100398.13
2022-08-05T20:46:47.897Z,100397.53
2022-08-05T20:49:15.290Z,100362.13
2022-08-05T20:51:53.405Z,100403.44
2022-08-05T20:54:21.093Z,100394.03
2022-08-05T20:56:49.107Z,100390.34
2022-08-05T20:59:26.283Z,100413.84
2022-08-05T21:01:57.146Z,100409.63
2022-08-05T21:04:27.036Z,100385.22
2022-08-05T21:06:54.984Z,100409.97
2022-08-05T21:09:23.459Z,100399.72
2022-08-05T21:12:10.655Z,100391.94
2022-08-05T21:14:39.696Z,100389.53
2022-08-05T21:17:07.257Z,100388.13
2022-08-05T21:19:46.920Z,100397.16
2022-08-05T21:22:23.466Z,100350.38
2022-08-05T21:24:54.920Z,100399.34
2022-08-05T21:27:25.199Z,100395.84
2022-08-05T21:29:54.028Z,100404.91
2022-08-05T21:32:27.587Z,100402.44
2022-08-05T21:35:08.321Z,100396.31
2022-08-05T21:37:47.468Z,100376.78
2022-08-05T21:40:23.099Z,100393.03
2022-08-05T21:42:52.009Z,100403.81
2022-08-05T21:45:26.447Z,100419.38
2022-08-05T21:48:09.511Z,100374.63
2022-08-05T21:50:37.319Z,100400.59
2022-08-05T21:53:17.391Z,100389.50
2022-08-05T21:56:04.690Z,100385.56
2022-08-05T21:58:34.618Z,100415.09
2022-08-05T22:01:05.151Z,100438.03
2022-08-05T22:03:51.773Z,100391.75
2022-08-05T22:06:22.275Z,100404.75
2022-08-05T22:08:52.223Z,100415.22
2022-08-05T22:11:34.927Z,100392.72
2022-08-05T22:14:18.209Z,100410.16
2022-08-05T22:16:55.948Z,100400.72
2022-08-05T22:20:00.768Z,100404.13
2022-08-05T22:22:12.274Z,100413.63
2022-08-05T22:25:00.799Z,100416.38
2022-08-05T22:28:08.943Z,100417.25
2022-08-05T22:30:35.319Z,100419.19
2022-08-05T22:33:15.478Z,100413.84
2022-08-05T22:35:48.594Z,100392.78
2022-08-05T22:38:19.593Z,100395.44
2022-08-05T22:40:50.136Z,100397.16
2022-08-05T22:43:36.579Z,100406.16
2022-08-05T22:46:12.204Z,100410.56
2022-08-05T22:48:48.184Z,100371.59
2022-08-05T22:51:22.928Z,100374.34
2022-08-05T22:53:58.545Z,100415.25
2022-08-05T22:56:30.570Z,100414.53
2022-08-05T22:59:04.191Z,100411.44
2022-08-05T23:02:04.689Z,100405.16
2022-08-05T23:04:33.801Z,100399.75
2022-08-05T23:07:01.542Z,100409.63
2022-08-05T23:09:57.067Z,100427.91
2022-08-05T23:12:17.985Z,100392.13
2022-08-05T23:14:44.976Z,100419.47
2022-08-05T23:17:35.019Z,100400.19
2022-08-05T23:20:17.963Z,100416.00
2022-08-05T23:22:47.815Z,100379.44
2022-08-05T23:25:54.709Z,100398.63
2022-08-05T23:28:07.661Z,100419.66
2022-08-05T23:30:40.417Z,100426.81
2022-08-05T23:33:21.894Z,100362.22
2022-08-05T23:35:56.086Z,100403.16
2022-08-05T23:38:24.136Z,100409.22
2022-08-05T23:40:52.828Z,100413.72
2022-08-05T23:43:25.191Z,100416.34
2022-08-05T23:46:21.484Z,100418.28
2022-08-05T23:49:00.699Z,100420.66
2022-08-05T23:51:55.290Z,100379.41
2022-08-05T23:54:25.726Z,100388.03
2022-08-05T23:57:04.109Z,100413.25
2022-08-05T23:59:37.561Z,100408.94
